sensor_id;sensor_type;location;lat;lon;timestamp;P1;durP1;ratioP1;P2;durP2;ratioP2
10132;SDS011;5106;50.926;7.080;2023-11-19T00:00:16;1.05;;;0.93;;
10132;SDS011;5106;50.926;7.080;2023-11-19T00:02:42;2.08;;;1.02;;
10132;SDS011;5106;50.926;7.080;2023-11-19T00:05:08;1.10;;;1.00;;
10132;SDS011;5106;50.926;7.080;2023-11-19T00:07:35;1.10;;;1.00;;
10132;SDS011;5106;50.926;7.080;2023-11-19T00:10:01;0.80;;;0.70;;
10132;SDS011;5106;50.926;7.080;2023-11-19T00:12:31;1.80;;;1.00;;
10132;SDS011;5106;50.926;7.080;2023-11-19T00:14:57;1.97;;;1.00;;
10132;SDS011;5106;50.926;7.080;2023-11-19T00:17:23;2.10;;;1.00;;
10132;SDS011;5106;50.926;7.080;2023-11-19T00:19:48;1.50;;;0.90;;
10132;SDS011;5106;50.926;7.080;2023-11-19T00:22:16;1.73;;;1.08;;
10132;SDS011;5106;50.926;7.080;2023-11-19T00:24:42;0.93;;;0.75;;
10132;SDS011;5106;50.926;7.080;2023-11-19T00:27:07;1.10;;;1.00;;
10132;SDS011;5106;50.926;7.080;2023-11-19T00:29:33;1.95;;;0.90;;
10132;SDS011;5106;50.926;7.080;2023-11-19T00:31:58;1.45;;;0.90;;
10132;SDS011;5106;50.926;7.080;2023-11-19T00:34:24;1.10;;;0.80;;
10132;SDS011;5106;50.926;7.080;2023-11-19T00:36:50;1.20;;;0.88;;
10132;SDS011;5106;50.926;7.080;2023-11-19T00:39:15;1.25;;;0.88;;
10132;SDS011;5106;50.926;7.080;2023-11-19T00:41:41;2.65;;;0.88;;
10132;SDS011;5106;50.926;7.080;2023-11-19T00:44:06;1.65;;;0.90;;
10132;SDS011;5106;50.926;7.080;2023-11-19T00:46:32;1.58;;;0.80;;
10132;SDS011;5106;50.926;7.080;2023-11-19T00:48:58;1.25;;;0.77;;
10132;SDS011;5106;50.926;7.080;2023-11-19T00:51:24;1.40;;;0.80;;
10132;SDS011;5106;50.926;7.080;2023-11-19T00:53:51;1.27;;;0.75;;
10132;SDS011;5106;50.926;7.080;2023-11-19T00:56:18;1.17;;;0.80;;
10132;SDS011;5106;50.926;7.080;2023-11-19T00:58:49;0.70;;;0.70;;
10132;SDS011;5106;50.926;7.080;2023-11-19T01:01:15;0.55;;;0.55;;
10132;SDS011;5106;50.926;7.080;2023-11-19T01:03:40;1.38;;;0.80;;
10132;SDS011;5106;50.926;7.080;2023-11-19T01:06:06;1.52;;;0.80;;
10132;SDS011;5106;50.926;7.080;2023-11-19T01:08:33;0.70;;;0.60;;
10132;SDS011;5106;50.926;7.080;2023-11-19T01:11:01;1.15;;;0.70;;
10132;SDS011;5106;50.926;7.080;2023-11-19T01:13:27;0.80;;;0.60;;
10132;SDS011;5106;50.926;7.080;2023-11-19T01:15:53;1.17;;;0.80;;
10132;SDS011;5106;50.926;7.080;2023-11-19T01:18:21;0.90;;;0.80;;
10132;SDS011;5106;50.926;7.080;2023-11-19T01:20:47;0.63;;;0.63;;
10132;SDS011;5106;50.926;7.080;2023-11-19T01:23:13;2.13;;;0.70;;
10132;SDS011;5106;50.926;7.080;2023-11-19T01:25:38;1.42;;;0.80;;
10132;SDS011;5106;50.926;7.080;2023-11-19T01:28:04;1.80;;;1.00;;
10132;SDS011;5106;50.926;7.080;2023-11-19T01:30:29;0.60;;;0.60;;
10132;SDS011;5106;50.926;7.080;2023-11-19T01:32:55;2.00;;;0.77;;
10132;SDS011;5106;50.926;7.080;2023-11-19T01:35:21;1.13;;;0.77;;
10132;SDS011;5106;50.926;7.080;2023-11-19T01:37:48;0.60;;;0.60;;
10132;SDS011;5106;50.926;7.080;2023-11-19T01:40:13;0.77;;;0.60;;
10132;SDS011;5106;50.926;7.080;2023-11-19T01:42:40;0.70;;;0.70;;
10132;SDS011;5106;50.926;7.080;2023-11-19T01:45:06;1.25;;;0.77;;
10132;SDS011;5106;50.926;7.080;2023-11-19T01:47:32;0.60;;;0.60;;
10132;SDS011;5106;50.926;7.080;2023-11-19T01:49:58;1.15;;;0.90;;
10132;SDS011;5106;50.926;7.080;2023-11-19T01:52:25;0.77;;;0.70;;
10132;SDS011;5106;50.926;7.080;2023-11-19T01:54:51;1.23;;;0.82;;
10132;SDS011;5106;50.926;7.080;2023-11-19T01:57:18;0.77;;;0.73;;
10132;SDS011;5106;50.926;7.080;2023-11-19T01:59:51;1.15;;;0.90;;
10132;SDS011;5106;50.926;7.080;2023-11-19T02:02:18;0.95;;;0.65;;
10132;SDS011;5106;50.926;7.080;2023-11-19T02:04:49;0.60;;;0.60;;
10132;SDS011;5106;50.926;7.080;2023-11-19T02:07:17;1.08;;;0.88;;
10132;SDS011;5106;50.926;7.080;2023-11-19T02:09:43;1.40;;;0.73;;
10132;SDS011;5106;50.926;7.080;2023-11-19T02:12:09;3.13;;;0.65;;
10132;SDS011;5106;50.926;7.080;2023-11-19T02:14:36;1.00;;;0.90;;
10132;SDS011;5106;50.926;7.080;2023-11-19T02:17:03;1.17;;;0.65;;
10132;SDS011;5106;50.926;7.080;2023-11-19T02:19:29;0.65;;;0.65;;
10132;SDS011;5106;50.926;7.080;2023-11-19T02:21:54;2.85;;;0.80;;
10132;SDS011;5106;50.926;7.080;2023-11-19T02:24:21;0.75;;;0.65;;
10132;SDS011;5106;50.926;7.080;2023-11-19T02:27:07;1.98;;;0.77;;
10132;SDS011;5106;50.926;7.080;2023-11-19T02:29:41;2.58;;;0.90;;
10132;SDS011;5106;50.926;7.080;2023-11-19T02:32:07;0.70;;;0.70;;
10132;SDS011;5106;50.926;7.080;2023-11-19T02:34:34;0.90;;;0.75;;
10132;SDS011;5106;50.926;7.080;2023-11-19T02:37:05;0.95;;;0.80;;
10132;SDS011;5106;50.926;7.080;2023-11-19T02:39:31;0.95;;;0.70;;
10132;SDS011;5106;50.926;7.080;2023-11-19T02:41:56;0.88;;;0.80;;
10132;SDS011;5106;50.926;7.080;2023-11-19T02:44:22;4.30;;;1.00;;
10132;SDS011;5106;50.926;7.080;2023-11-19T02:46:48;1.75;;;0.80;;
10132;SDS011;5106;50.926;7.080;2023-11-19T02:49:14;1.58;;;0.80;;
10132;SDS011;5106;50.926;7.080;2023-11-19T02:51:40;2.13;;;0.80;;
10132;SDS011;5106;50.926;7.080;2023-11-19T02:54:06;0.93;;;0.80;;
10132;SDS011;5106;50.926;7.080;2023-11-19T02:56:32;1.92;;;0.90;;
10132;SDS011;5106;50.926;7.080;2023-11-19T02:59:01;1.05;;;0.82;;
10132;SDS011;5106;50.926;7.080;2023-11-19T03:01:39;2.30;;;0.90;;
10132;SDS011;5106;50.926;7.080;2023-11-19T03:04:08;1.40;;;0.80;;
10132;SDS011;5106;50.926;7.080;2023-11-19T03:06:37;2.75;;;0.90;;
10132;SDS011;5106;50.926;7.080;2023-11-19T03:09:02;2.03;;;1.00;;
10132;SDS011;5106;50.926;7.080;2023-11-19T03:11:33;0.82;;;0.80;;
10132;SDS011;5106;50.926;7.080;2023-11-19T03:13:58;1.95;;;0.90;;
10132;SDS011;5106;50.926;7.080;2023-11-19T03:16:24;2.05;;;0.95;;
10132;SDS011;5106;50.926;7.080;2023-11-19T03:18:49;3.10;;;1.10;;
10132;SDS011;5106;50.926;7.080;2023-11-19T03:21:15;2.38;;;1.25;;
10132;SDS011;5106;50.926;7.080;2023-11-19T03:23:40;1.75;;;1.00;;
10132;SDS011;5106;50.926;7.080;2023-11-19T03:26:06;6.68;;;1.42;;
10132;SDS011;5106;50.926;7.080;2023-11-19T03:28:33;3.97;;;1.20;;
10132;SDS011;5106;50.926;7.080;2023-11-19T03:30:58;3.47;;;1.30;;
10132;SDS011;5106;50.926;7.080;2023-11-19T03:33:24;3.38;;;1.40;;
10132;SDS011;5106;50.926;7.080;2023-11-19T03:35:50;3.63;;;1.20;;
10132;SDS011;5106;50.926;7.080;2023-11-19T03:38:17;3.80;;;1.33;;
10132;SDS011;5106;50.926;7.080;2023-11-19T03:40:42;5.95;;;1.30;;
10132;SDS011;5106;50.926;7.080;2023-11-19T03:43:08;4.63;;;1.55;;
10132;SDS011;5106;50.926;7.080;2023-11-19T03:45:34;4.30;;;1.40;;
10132;SDS011;5106;50.926;7.080;2023-11-19T03:48:01;2.40;;;1.33;;
10132;SDS011;5106;50.926;7.080;2023-11-19T03:50:32;2.92;;;1.55;;
10132;SDS011;5106;50.926;7.080;2023-11-19T03:52:57;3.60;;;1.40;;
10132;SDS011;5106;50.926;7.080;2023-11-19T03:55:23;4.40;;;1.63;;
10132;SDS011;5106;50.926;7.080;2023-11-19T03:57:48;5.15;;;1.40;;
10132;SDS011;5106;50.926;7.080;2023-11-19T04:00:14;2.53;;;1.15;;
10132;SDS011;5106;50.926;7.080;2023-11-19T04:02:41;6.13;;;1.50;;
10132;SDS011;5106;50.926;7.080;2023-11-19T04:05:06;6.75;;;1.90;;
10132;SDS011;5106;50.926;7.080;2023-11-19T04:07:32;5.85;;;1.90;;
10132;SDS011;5106;50.926;7.080;2023-11-19T04:09:58;7.78;;;2.30;;
10132;SDS011;5106;50.926;7.080;2023-11-19T04:12:24;10.43;;;3.10;;
10132;SDS011;5106;50.926;7.080;2023-11-19T04:14:50;7.43;;;2.40;;
10132;SDS011;5106;50.926;7.080;2023-11-19T04:17:15;11.07;;;3.13;;
10132;SDS011;5106;50.926;7.080;2023-11-19T04:19:41;10.73;;;3.38;;
10132;SDS011;5106;50.926;7.080;2023-11-19T04:22:07;12.30;;;3.00;;
10132;SDS011;5106;50.926;7.080;2023-11-19T04:24:33;10.82;;;3.17;;
10132;SDS011;5106;50.926;7.080;2023-11-19T04:26:59;8.10;;;3.20;;
10132;SDS011;5106;50.926;7.080;2023-11-19T04:29:25;7.60;;;2.60;;
10132;SDS011;5106;50.926;7.080;2023-11-19T04:31:50;14.32;;;2.97;;
10132;SDS011;5106;50.926;7.080;2023-11-19T04:34:16;12.70;;;2.72;;
10132;SDS011;5106;50.926;7.080;2023-11-19T04:36:41;9.00;;;2.28;;
10132;SDS011;5106;50.926;7.080;2023-11-19T04:39:08;7.63;;;2.33;;
10132;SDS011;5106;50.926;7.080;2023-11-19T04:41:50;14.50;;;2.72;;
10132;SDS011;5106;50.926;7.080;2023-11-19T04:44:19;13.07;;;2.90;;
10132;SDS011;5106;50.926;7.080;2023-11-19T04:46:45;10.60;;;2.67;;
10132;SDS011;5106;50.926;7.080;2023-11-19T04:49:11;14.32;;;2.95;;
10132;SDS011;5106;50.926;7.080;2023-11-19T04:51:38;11.70;;;3.10;;
10132;SDS011;5106;50.926;7.080;2023-11-19T04:54:10;10.77;;;2.70;;
10132;SDS011;5106;50.926;7.080;2023-11-19T04:56:36;13.77;;;2.80;;
10132;SDS011;5106;50.926;7.080;2023-11-19T04:59:02;9.88;;;2.50;;
10132;SDS011;5106;50.926;7.080;2023-11-19T05:01:28;9.77;;;2.97;;
10132;SDS011;5106;50.926;7.080;2023-11-19T05:03:54;7.35;;;2.80;;
10132;SDS011;5106;50.926;7.080;2023-11-19T05:06:22;12.25;;;2.50;;
10132;SDS011;5106;50.926;7.080;2023-11-19T05:08:47;9.27;;;2.95;;
10132;SDS011;5106;50.926;7.080;2023-11-19T05:11:13;8.43;;;2.53;;
10132;SDS011;5106;50.926;7.080;2023-11-19T05:13:42;11.00;;;2.83;;
10132;SDS011;5106;50.926;7.080;2023-11-19T05:16:10;9.85;;;2.70;;
10132;SDS011;5106;50.926;7.080;2023-11-19T05:18:39;7.72;;;2.25;;
10132;SDS011;5106;50.926;7.080;2023-11-19T05:21:05;10.48;;;2.40;;
10132;SDS011;5106;50.926;7.080;2023-11-19T05:23:31;13.52;;;2.83;;
10132;SDS011;5106;50.926;7.080;2023-11-19T05:25:58;6.88;;;2.25;;
10132;SDS011;5106;50.926;7.080;2023-11-19T05:28:25;9.35;;;2.55;;
10132;SDS011;5106;50.926;7.080;2023-11-19T05:30:51;7.78;;;2.20;;
10132;SDS011;5106;50.926;7.080;2023-11-19T05:33:16;8.48;;;2.20;;
10132;SDS011;5106;50.926;7.080;2023-11-19T05:35:42;11.48;;;2.65;;
10132;SDS011;5106;50.926;7.080;2023-11-19T05:38:07;8.55;;;2.63;;
10132;SDS011;5106;50.926;7.080;2023-11-19T05:40:34;9.68;;;2.60;;
10132;SDS011;5106;50.926;7.080;2023-11-19T05:43:00;6.32;;;2.45;;
10132;SDS011;5106;50.926;7.080;2023-11-19T05:45:26;8.93;;;2.65;;
10132;SDS011;5106;50.926;7.080;2023-11-19T05:47:52;9.23;;;2.30;;
10132;SDS011;5106;50.926;7.080;2023-11-19T05:50:17;10.95;;;2.42;;
10132;SDS011;5106;50.926;7.080;2023-11-19T05:52:43;9.85;;;2.50;;
10132;SDS011;5106;50.926;7.080;2023-11-19T05:55:09;10.68;;;2.67;;
10132;SDS011;5106;50.926;7.080;2023-11-19T05:57:38;11.82;;;2.85;;
10132;SDS011;5106;50.926;7.080;2023-11-19T06:00:05;10.32;;;2.70;;
10132;SDS011;5106;50.926;7.080;2023-11-19T06:02:32;8.70;;;2.47;;
10132;SDS011;5106;50.926;7.080;2023-11-19T06:04:58;12.15;;;3.17;;
10132;SDS011;5106;50.926;7.080;2023-11-19T06:07:23;10.90;;;2.72;;
10132;SDS011;5106;50.926;7.080;2023-11-19T06:09:50;9.52;;;2.58;;
10132;SDS011;5106;50.926;7.080;2023-11-19T06:12:15;14.40;;;3.30;;
10132;SDS011;5106;50.926;7.080;2023-11-19T06:14:41;13.32;;;3.00;;
10132;SDS011;5106;50.926;7.080;2023-11-19T06:17:06;15.82;;;3.67;;
10132;SDS011;5106;50.926;7.080;2023-11-19T06:19:33;10.13;;;2.80;;
10132;SDS011;5106;50.926;7.080;2023-11-19T06:21:59;14.25;;;3.20;;
10132;SDS011;5106;50.926;7.080;2023-11-19T06:24:25;13.38;;;2.63;;
10132;SDS011;5106;50.926;7.080;2023-11-19T06:26:50;12.50;;;3.00;;
10132;SDS011;5106;50.926;7.080;2023-11-19T06:29:16;12.52;;;3.22;;
10132;SDS011;5106;50.926;7.080;2023-11-19T06:31:44;12.32;;;3.50;;
10132;SDS011;5106;50.926;7.080;2023-11-19T06:34:10;19.38;;;3.83;;
10132;SDS011;5106;50.926;7.080;2023-11-19T06:36:35;13.00;;;3.47;;
10132;SDS011;5106;50.926;7.080;2023-11-19T06:39:02;11.82;;;3.00;;
10132;SDS011;5106;50.926;7.080;2023-11-19T06:41:28;15.60;;;3.60;;
10132;SDS011;5106;50.926;7.080;2023-11-19T06:43:54;17.80;;;3.47;;
10132;SDS011;5106;50.926;7.080;2023-11-19T06:46:20;17.83;;;3.28;;
10132;SDS011;5106;50.926;7.080;2023-11-19T06:48:45;14.45;;;3.45;;
10132;SDS011;5106;50.926;7.080;2023-11-19T06:51:11;13.15;;;3.28;;
10132;SDS011;5106;50.926;7.080;2023-11-19T06:53:37;13.55;;;3.40;;
10132;SDS011;5106;50.926;7.080;2023-11-19T06:56:04;15.88;;;3.08;;
10132;SDS011;5106;50.926;7.080;2023-11-19T06:58:31;15.55;;;3.55;;
10132;SDS011;5106;50.926;7.080;2023-11-19T07:01:00;16.20;;;3.53;;
10132;SDS011;5106;50.926;7.080;2023-11-19T07:03:26;14.93;;;3.45;;
10132;SDS011;5106;50.926;7.080;2023-11-19T07:05:51;13.05;;;3.60;;
10132;SDS011;5106;50.926;7.080;2023-11-19T07:08:17;13.60;;;2.80;;
10132;SDS011;5106;50.926;7.080;2023-11-19T07:10:42;11.38;;;3.25;;
10132;SDS011;5106;50.926;7.080;2023-11-19T07:13:08;16.13;;;3.15;;
10132;SDS011;5106;50.926;7.080;2023-11-19T07:15:34;15.20;;;3.20;;
10132;SDS011;5106;50.926;7.080;2023-11-19T07:18:00;15.18;;;3.30;;
10132;SDS011;5106;50.926;7.080;2023-11-19T07:20:26;14.95;;;2.92;;
10132;SDS011;5106;50.926;7.080;2023-11-19T07:22:51;16.15;;;3.28;;
10132;SDS011;5106;50.926;7.080;2023-11-19T07:25:17;16.55;;;3.30;;
10132;SDS011;5106;50.926;7.080;2023-11-19T07:27:43;11.25;;;3.03;;
10132;SDS011;5106;50.926;7.080;2023-11-19T07:30:09;16.33;;;3.50;;
10132;SDS011;5106;50.926;7.080;2023-11-19T07:32:34;13.57;;;3.58;;
10132;SDS011;5106;50.926;7.080;2023-11-19T07:35:00;12.93;;;3.10;;
10132;SDS011;5106;50.926;7.080;2023-11-19T07:37:26;11.68;;;3.20;;
10132;SDS011;5106;50.926;7.080;2023-11-19T07:39:51;11.98;;;3.45;;
10132;SDS011;5106;50.926;7.080;2023-11-19T07:42:17;15.57;;;3.10;;
10132;SDS011;5106;50.926;7.080;2023-11-19T07:44:43;14.45;;;3.83;;
10132;SDS011;5106;50.926;7.080;2023-11-19T07:47:09;10.45;;;3.28;;
10132;SDS011;5106;50.926;7.080;2023-11-19T07:49:35;12.45;;;3.03;;
10132;SDS011;5106;50.926;7.080;2023-11-19T07:52:00;15.88;;;3.90;;
10132;SDS011;5106;50.926;7.080;2023-11-19T07:54:28;15.82;;;3.88;;
10132;SDS011;5106;50.926;7.080;2023-11-19T07:56:53;13.60;;;3.67;;
10132;SDS011;5106;50.926;7.080;2023-11-19T07:59:19;13.73;;;4.07;;
10132;SDS011;5106;50.926;7.080;2023-11-19T08:01:45;15.43;;;4.13;;
10132;SDS011;5106;50.926;7.080;2023-11-19T08:04:10;17.25;;;3.88;;
10132;SDS011;5106;50.926;7.080;2023-11-19T08:06:36;15.15;;;3.60;;
10132;SDS011;5106;50.926;7.080;2023-11-19T08:09:01;17.85;;;4.00;;
10132;SDS011;5106;50.926;7.080;2023-11-19T08:11:27;35.67;;;5.32;;
10132;SDS011;5106;50.926;7.080;2023-11-19T08:13:53;14.82;;;3.63;;
10132;SDS011;5106;50.926;7.080;2023-11-19T08:16:18;15.93;;;3.38;;
10132;SDS011;5106;50.926;7.080;2023-11-19T08:18:44;15.02;;;3.45;;
10132;SDS011;5106;50.926;7.080;2023-11-19T08:21:10;9.80;;;3.25;;
10132;SDS011;5106;50.926;7.080;2023-11-19T08:23:35;16.77;;;3.55;;
10132;SDS011;5106;50.926;7.080;2023-11-19T08:26:01;15.00;;;3.70;;
10132;SDS011;5106;50.926;7.080;2023-11-19T08:28:27;10.93;;;2.92;;
10132;SDS011;5106;50.926;7.080;2023-11-19T08:30:53;13.07;;;3.42;;
10132;SDS011;5106;50.926;7.080;2023-11-19T08:33:19;16.15;;;3.55;;
10132;SDS011;5106;50.926;7.080;2023-11-19T08:35:47;17.10;;;3.30;;
10132;SDS011;5106;50.926;7.080;2023-11-19T08:38:13;13.90;;;3.53;;
10132;SDS011;5106;50.926;7.080;2023-11-19T08:40:38;15.65;;;3.67;;
10132;SDS011;5106;50.926;7.080;2023-11-19T08:43:04;15.43;;;3.67;;
10132;SDS011;5106;50.926;7.080;2023-11-19T08:45:31;14.40;;;3.30;;
10132;SDS011;5106;50.926;7.080;2023-11-19T08:47:57;12.10;;;3.15;;
10132;SDS011;5106;50.926;7.080;2023-11-19T08:50:22;15.95;;;3.55;;
10132;SDS011;5106;50.926;7.080;2023-11-19T08:52:48;11.93;;;3.70;;
10132;SDS011;5106;50.926;7.080;2023-11-19T08:55:14;11.55;;;3.33;;
10132;SDS011;5106;50.926;7.080;2023-11-19T08:57:40;13.10;;;3.45;;
10132;SDS011;5106;50.926;7.080;2023-11-19T09:00:05;17.45;;;3.25;;
10132;SDS011;5106;50.926;7.080;2023-11-19T09:02:37;12.93;;;3.25;;
10132;SDS011;5106;50.926;7.080;2023-11-19T09:05:04;14.60;;;3.75;;
10132;SDS011;5106;50.926;7.080;2023-11-19T09:07:30;16.55;;;4.00;;
10132;SDS011;5106;50.926;7.080;2023-11-19T09:09:56;13.13;;;3.55;;
10132;SDS011;5106;50.926;7.080;2023-11-19T09:12:22;20.42;;;3.90;;
10132;SDS011;5106;50.926;7.080;2023-11-19T09:14:47;12.02;;;3.17;;
10132;SDS011;5106;50.926;7.080;2023-11-19T09:17:14;16.80;;;4.20;;
10132;SDS011;5106;50.926;7.080;2023-11-19T09:19:40;11.75;;;2.90;;
10132;SDS011;5106;50.926;7.080;2023-11-19T09:22:06;15.85;;;4.28;;
10132;SDS011;5106;50.926;7.080;2023-11-19T09:24:32;15.15;;;3.75;;
10132;SDS011;5106;50.926;7.080;2023-11-19T09:26:58;16.95;;;3.83;;
10132;SDS011;5106;50.926;7.080;2023-11-19T09:29:23;9.73;;;2.97;;
10132;SDS011;5106;50.926;7.080;2023-11-19T09:31:49;15.63;;;3.38;;
10132;SDS011;5106;50.926;7.080;2023-11-19T09:34:14;12.45;;;3.58;;
10132;SDS011;5106;50.926;7.080;2023-11-19T09:36:40;12.13;;;3.83;;
10132;SDS011;5106;50.926;7.080;2023-11-19T09:39:09;14.65;;;3.33;;
10132;SDS011;5106;50.926;7.080;2023-11-19T09:41:35;19.00;;;4.05;;
10132;SDS011;5106;50.926;7.080;2023-11-19T09:44:01;14.65;;;3.85;;
10132;SDS011;5106;50.926;7.080;2023-11-19T09:46:26;15.52;;;3.92;;
10132;SDS011;5106;50.926;7.080;2023-11-19T09:48:54;12.75;;;3.33;;
10132;SDS011;5106;50.926;7.080;2023-11-19T09:51:22;13.63;;;3.22;;
10132;SDS011;5106;50.926;7.080;2023-11-19T09:53:48;17.33;;;4.05;;
10132;SDS011;5106;50.926;7.080;2023-11-19T09:56:14;19.45;;;3.53;;
10132;SDS011;5106;50.926;7.080;2023-11-19T09:58:42;18.35;;;3.90;;
10132;SDS011;5106;50.926;7.080;2023-11-19T10:01:08;19.23;;;4.32;;
10132;SDS011;5106;50.926;7.080;2023-11-19T10:03:37;20.55;;;4.40;;
10132;SDS011;5106;50.926;7.080;2023-11-19T10:06:08;11.25;;;3.40;;
10132;SDS011;5106;50.926;7.080;2023-11-19T10:08:34;14.38;;;4.00;;
10132;SDS011;5106;50.926;7.080;2023-11-19T10:11:02;14.55;;;3.53;;
10132;SDS011;5106;50.926;7.080;2023-11-19T10:13:28;13.00;;;3.50;;
10132;SDS011;5106;50.926;7.080;2023-11-19T10:15:57;15.02;;;3.63;;
10132;SDS011;5106;50.926;7.080;2023-11-19T10:18:23;13.07;;;3.33;;
10132;SDS011;5106;50.926;7.080;2023-11-19T10:20:50;12.40;;;3.40;;
10132;SDS011;5106;50.926;7.080;2023-11-19T10:23:16;15.27;;;3.70;;
10132;SDS011;5106;50.926;7.080;2023-11-19T10:25:42;14.23;;;3.97;;
10132;SDS011;5106;50.926;7.080;2023-11-19T10:28:07;14.38;;;3.50;;
10132;SDS011;5106;50.926;7.080;2023-11-19T10:30:33;18.60;;;4.05;;
10132;SDS011;5106;50.926;7.080;2023-11-19T10:33:02;11.45;;;3.58;;
10132;SDS011;5106;50.926;7.080;2023-11-19T10:35:33;14.75;;;4.07;;
10132;SDS011;5106;50.926;7.080;2023-11-19T10:38:15;13.25;;;3.45;;
10132;SDS011;5106;50.926;7.080;2023-11-19T10:40:41;14.73;;;3.20;;
10132;SDS011;5106;50.926;7.080;2023-11-19T10:43:07;12.93;;;3.42;;
10132;SDS011;5106;50.926;7.080;2023-11-19T10:45:33;10.90;;;3.38;;
10132;SDS011;5106;50.926;7.080;2023-11-19T10:48:03;14.70;;;3.58;;
10132;SDS011;5106;50.926;7.080;2023-11-19T10:50:32;12.73;;;3.00;;
10132;SDS011;5106;50.926;7.080;2023-11-19T10:53:02;16.23;;;3.35;;
10132;SDS011;5106;50.926;7.080;2023-11-19T10:55:29;20.90;;;4.10;;
10132;SDS011;5106;50.926;7.080;2023-11-19T10:57:59;14.27;;;3.58;;
10132;SDS011;5106;50.926;7.080;2023-11-19T11:00:39;13.57;;;3.72;;
10132;SDS011;5106;50.926;7.080;2023-11-19T11:03:11;14.07;;;3.03;;
10132;SDS011;5106;50.926;7.080;2023-11-19T11:05:39;15.02;;;3.53;;
10132;SDS011;5106;50.926;7.080;2023-11-19T11:08:06;17.80;;;3.70;;
10132;SDS011;5106;50.926;7.080;2023-11-19T11:10:34;13.55;;;3.33;;
10132;SDS011;5106;50.926;7.080;2023-11-19T11:13:04;11.07;;;3.05;;
10132;SDS011;5106;50.926;7.080;2023-11-19T11:15:31;9.45;;;3.08;;
10132;SDS011;5106;50.926;7.080;2023-11-19T11:17:59;13.70;;;3.35;;
10132;SDS011;5106;50.926;7.080;2023-11-19T11:20:32;15.18;;;3.33;;
10132;SDS011;5106;50.926;7.080;2023-11-19T11:29:09;12.73;;;3.15;;
10132;SDS011;5106;50.926;7.080;2023-11-19T11:39:33;15.02;;;3.20;;
10132;SDS011;5106;50.926;7.080;2023-11-19T11:44:59;13.77;;;3.33;;
10132;SDS011;5106;50.926;7.080;2023-11-19T11:50:47;11.45;;;2.85;;
10132;SDS011;5106;50.926;7.080;2023-11-19T11:55:34;11.82;;;2.88;;
10132;SDS011;5106;50.926;7.080;2023-11-19T11:58:03;10.60;;;2.92;;
10132;SDS011;5106;50.926;7.080;2023-11-19T12:02:56;11.95;;;2.53;;
10132;SDS011;5106;50.926;7.080;2023-11-19T12:05:24;10.75;;;2.95;;
10132;SDS011;5106;50.926;7.080;2023-11-19T12:07:59;10.32;;;2.50;;
10132;SDS011;5106;50.926;7.080;2023-11-19T12:10:30;11.55;;;2.60;;
10132;SDS011;5106;50.926;7.080;2023-11-19T12:12:59;8.25;;;2.72;;
10132;SDS011;5106;50.926;7.080;2023-11-19T12:15:26;11.00;;;2.72;;
10132;SDS011;5106;50.926;7.080;2023-11-19T12:17:53;11.23;;;2.60;;
10132;SDS011;5106;50.926;7.080;2023-11-19T12:20:23;11.55;;;3.10;;
10132;SDS011;5106;50.926;7.080;2023-11-19T12:23:05;10.65;;;2.65;;
10132;SDS011;5106;50.926;7.080;2023-11-19T12:25:41;12.80;;;3.13;;
10132;SDS011;5106;50.926;7.080;2023-11-19T12:28:11;11.18;;;3.20;;
10132;SDS011;5106;50.926;7.080;2023-11-19T12:30:38;10.82;;;3.38;;
10132;SDS011;5106;50.926;7.080;2023-11-19T12:33:10;15.73;;;3.50;;
10132;SDS011;5106;50.926;7.080;2023-11-19T12:35:40;12.13;;;3.03;;
10132;SDS011;5106;50.926;7.080;2023-11-19T12:38:07;10.80;;;2.83;;
10132;SDS011;5106;50.926;7.080;2023-11-19T12:40:33;11.57;;;3.17;;
10132;SDS011;5106;50.926;7.080;2023-11-19T12:42:59;14.00;;;3.33;;
10132;SDS011;5106;50.926;7.080;2023-11-19T12:45:34;8.88;;;2.60;;
10132;SDS011;5106;50.926;7.080;2023-11-19T12:48:04;10.68;;;3.00;;
10132;SDS011;5106;50.926;7.080;2023-11-19T12:50:49;10.07;;;2.60;;
10132;SDS011;5106;50.926;7.080;2023-11-19T12:53:16;13.57;;;2.88;;
10132;SDS011;5106;50.926;7.080;2023-11-19T12:55:43;12.85;;;2.80;;
10132;SDS011;5106;50.926;7.080;2023-11-19T12:58:08;7.05;;;2.45;;
10132;SDS011;5106;50.926;7.080;2023-11-19T13:00:34;14.35;;;3.35;;
10132;SDS011;5106;50.926;7.080;2023-11-19T13:03:00;9.02;;;2.80;;
10132;SDS011;5106;50.926;7.080;2023-11-19T13:10:28;12.32;;;2.60;;
10132;SDS011;5106;50.926;7.080;2023-11-19T13:15:30;11.68;;;2.70;;
10132;SDS011;5106;50.926;7.080;2023-11-19T13:17:57;10.55;;;2.40;;
10132;SDS011;5106;50.926;7.080;2023-11-19T13:20:22;8.98;;;2.35;;
10132;SDS011;5106;50.926;7.080;2023-11-19T13:28:50;9.23;;;3.00;;
10132;SDS011;5106;50.926;7.080;2023-11-19T13:31:16;11.75;;;3.50;;
10132;SDS011;5106;50.926;7.080;2023-11-19T13:33:42;12.13;;;3.45;;
10132;SDS011;5106;50.926;7.080;2023-11-19T13:36:08;12.52;;;3.40;;
10132;SDS011;5106;50.926;7.080;2023-11-19T13:38:34;8.98;;;2.50;;
10132;SDS011;5106;50.926;7.080;2023-11-19T13:41:04;10.25;;;2.70;;
10132;SDS011;5106;50.926;7.080;2023-11-19T13:43:30;12.95;;;3.30;;
10132;SDS011;5106;50.926;7.080;2023-11-19T13:45:56;11.88;;;3.03;;
10132;SDS011;5106;50.926;7.080;2023-11-19T13:48:23;12.02;;;3.50;;
10132;SDS011;5106;50.926;7.080;2023-11-19T13:50:49;10.68;;;2.90;;
10132;SDS011;5106;50.926;7.080;2023-11-19T13:53:15;9.43;;;2.72;;
10132;SDS011;5106;50.926;7.080;2023-11-19T13:55:42;11.57;;;3.33;;
10132;SDS011;5106;50.926;7.080;2023-11-19T13:58:08;16.92;;;3.33;;
10132;SDS011;5106;50.926;7.080;2023-11-19T14:00:35;15.55;;;3.28;;
10132;SDS011;5106;50.926;7.080;2023-11-19T14:03:00;11.45;;;3.30;;
10132;SDS011;5106;50.926;7.080;2023-11-19T14:05:26;9.88;;;2.92;;
10132;SDS011;5106;50.926;7.080;2023-11-19T14:07:51;12.85;;;3.15;;
10132;SDS011;5106;50.926;7.080;2023-11-19T14:10:18;12.85;;;3.30;;
10132;SDS011;5106;50.926;7.080;2023-11-19T14:12:44;12.65;;;3.42;;
10132;SDS011;5106;50.926;7.080;2023-11-19T14:15:10;12.15;;;3.08;;
10132;SDS011;5106;50.926;7.080;2023-11-19T14:17:38;15.82;;;3.67;;
10132;SDS011;5106;50.926;7.080;2023-11-19T14:20:04;11.90;;;3.20;;
10132;SDS011;5106;50.926;7.080;2023-11-19T14:22:37;13.68;;;3.40;;
10132;SDS011;5106;50.926;7.080;2023-11-19T14:25:07;11.77;;;3.10;;
10132;SDS011;5106;50.926;7.080;2023-11-19T14:27:35;10.93;;;3.20;;
10132;SDS011;5106;50.926;7.080;2023-11-19T14:30:02;11.48;;;2.65;;
10132;SDS011;5106;50.926;7.080;2023-11-19T14:32:28;14.70;;;3.40;;
10132;SDS011;5106;50.926;7.080;2023-11-19T14:34:54;12.13;;;3.05;;
10132;SDS011;5106;50.926;7.080;2023-11-19T14:37:20;10.65;;;2.85;;
10132;SDS011;5106;50.926;7.080;2023-11-19T14:39:45;12.60;;;3.05;;
10132;SDS011;5106;50.926;7.080;2023-11-19T14:42:11;13.80;;;3.30;;
10132;SDS011;5106;50.926;7.080;2023-11-19T14:44:36;11.35;;;3.13;;
10132;SDS011;5106;50.926;7.080;2023-11-19T14:47:02;11.68;;;2.60;;
10132;SDS011;5106;50.926;7.080;2023-11-19T14:49:28;8.82;;;2.33;;
10132;SDS011;5106;50.926;7.080;2023-11-19T14:51:53;8.77;;;2.80;;
10132;SDS011;5106;50.926;7.080;2023-11-19T14:54:19;8.45;;;2.58;;
10132;SDS011;5106;50.926;7.080;2023-11-19T14:56:44;9.30;;;2.65;;
10132;SDS011;5106;50.926;7.080;2023-11-19T14:59:10;7.60;;;2.58;;
10132;SDS011;5106;50.926;7.080;2023-11-19T15:01:35;8.60;;;2.80;;
10132;SDS011;5106;50.926;7.080;2023-11-19T15:04:01;14.65;;;2.95;;
10132;SDS011;5106;50.926;7.080;2023-11-19T15:06:27;10.07;;;3.10;;
10132;SDS011;5106;50.926;7.080;2023-11-19T15:08:53;10.02;;;2.65;;
10132;SDS011;5106;50.926;7.080;2023-11-19T15:11:19;15.25;;;3.00;;
10132;SDS011;5106;50.926;7.080;2023-11-19T15:13:46;13.57;;;2.90;;
10132;SDS011;5106;50.926;7.080;2023-11-19T15:16:11;10.25;;;2.50;;
10132;SDS011;5106;50.926;7.080;2023-11-19T15:18:39;9.40;;;2.47;;
10132;SDS011;5106;50.926;7.080;2023-11-19T15:21:05;12.57;;;2.88;;
10132;SDS011;5106;50.926;7.080;2023-11-19T15:23:30;11.82;;;2.30;;
10132;SDS011;5106;50.926;7.080;2023-11-19T15:25:56;9.57;;;2.72;;
10132;SDS011;5106;50.926;7.080;2023-11-19T15:28:21;11.65;;;2.63;;